sensor_id;sensor_type;location;lat;lon;timestamp;temperature;humidity
19908;DHT22;10116;53.112;7.356;2023-06-04T00:00:22;25.40;38.80
19908;DHT22;10116;53.112;7.356;2023-06-04T00:02:47;25.40;39.20
19908;DHT22;10116;53.112;7.356;2023-06-04T00:05:13;25.40;38.50
19908;DHT22;10116;53.112;7.356;2023-06-04T00:07:39;25.40;52.00
19908;DHT22;10116;53.112;7.356;2023-06-04T00:10:05;25.40;39.80
19908;DHT22;10116;53.112;7.356;2023-06-04T00:12:30;25.40;39.30
19908;DHT22;10116;53.112;7.356;2023-06-04T00:14:56;25.40;39.20
19908;DHT22;10116;53.112;7.356;2023-06-04T00:17:21;25.40;39.90
19908;DHT22;10116;53.112;7.356;2023-06-04T00:19:47;25.40;39.40
19908;DHT22;10116;53.112;7.356;2023-06-04T00:22:12;25.40;40.30
19908;DHT22;10116;53.112;7.356;2023-06-04T00:24:38;25.50;40.90
19908;DHT22;10116;53.112;7.356;2023-06-04T00:27:07;25.50;41.20
19908;DHT22;10116;53.112;7.356;2023-06-04T00:29:32;25.60;42.70
19908;DHT22;10116;53.112;7.356;2023-06-04T00:31:58;25.60;42.60
19908;DHT22;10116;53.112;7.356;2023-06-04T00:34:24;25.60;43.10
19908;DHT22;10116;53.112;7.356;2023-06-04T00:36:49;25.60;42.80
19908;DHT22;10116;53.112;7.356;2023-06-04T00:39:15;25.60;43.20
19908;DHT22;10116;53.112;7.356;2023-06-04T00:41:40;25.60;43.30
19908;DHT22;10116;53.112;7.356;2023-06-04T00:44:06;25.60;43.30
19908;DHT22;10116;53.112;7.356;2023-06-04T00:46:32;25.60;43.10
19908;DHT22;10116;53.112;7.356;2023-06-04T00:48:58;25.60;43.20
19908;DHT22;10116;53.112;7.356;2023-06-04T00:51:25;25.60;43.40
19908;DHT22;10116;53.112;7.356;2023-06-04T00:53:51;25.60;42.90
19908;DHT22;10116;53.112;7.356;2023-06-04T00:56:17;25.60;55.30
19908;DHT22;10116;53.112;7.356;2023-06-04T00:58:44;25.60;43.70
19908;DHT22;10116;53.112;7.356;2023-06-04T01:01:34;25.60;42.50
19908;DHT22;10116;53.112;7.356;2023-06-04T01:04:04;25.60;43.70
19908;DHT22;10116;53.112;7.356;2023-06-04T01:06:35;25.60;43.10
19908;DHT22;10116;53.112;7.356;2023-06-04T01:09:02;25.60;43.90
19908;DHT22;10116;53.112;7.356;2023-06-04T01:11:36;25.60;44.00
19908;DHT22;10116;53.112;7.356;2023-06-04T01:14:03;25.60;42.90
19908;DHT22;10116;53.112;7.356;2023-06-04T01:16:34;25.60;43.40
19908;DHT22;10116;53.112;7.356;2023-06-04T01:19:02;25.60;43.80
19908;DHT22;10116;53.112;7.356;2023-06-04T01:21:32;25.60;44.20
19908;DHT22;10116;53.112;7.356;2023-06-04T01:24:01;25.60;43.50
19908;DHT22;10116;53.112;7.356;2023-06-04T01:26:31;25.60;44.60
19908;DHT22;10116;53.112;7.356;2023-06-04T01:28:57;25.60;43.80
19908;DHT22;10116;53.112;7.356;2023-06-04T01:31:25;25.60;43.80
19908;DHT22;10116;53.112;7.356;2023-06-04T01:33:54;25.60;44.60
19908;DHT22;10116;53.112;7.356;2023-06-04T01:36:21;25.60;43.90
19908;DHT22;10116;53.112;7.356;2023-06-04T01:38:48;25.60;44.90
19908;DHT22;10116;53.112;7.356;2023-06-04T01:41:13;25.60;45.10
19908;DHT22;10116;53.112;7.356;2023-06-04T01:43:39;25.60;44.00
19908;DHT22;10116;53.112;7.356;2023-06-04T01:46:05;25.60;44.00
19908;DHT22;10116;53.112;7.356;2023-06-04T01:48:30;25.60;43.90
19908;DHT22;10116;53.112;7.356;2023-06-04T01:50:57;25.60;44.10
19908;DHT22;10116;53.112;7.356;2023-06-04T01:53:23;25.60;44.40
19908;DHT22;10116;53.112;7.356;2023-06-04T01:55:48;25.60;44.10
19908;DHT22;10116;53.112;7.356;2023-06-04T01:58:18;25.60;44.70
19908;DHT22;10116;53.112;7.356;2023-06-04T02:00:51;25.60;44.30
19908;DHT22;10116;53.112;7.356;2023-06-04T02:03:18;25.60;44.20
19908;DHT22;10116;53.112;7.356;2023-06-04T02:05:44;25.60;44.30
19908;DHT22;10116;53.112;7.356;2023-06-04T02:08:14;25.60;44.50
19908;DHT22;10116;53.112;7.356;2023-06-04T02:10:46;25.50;45.20
19908;DHT22;10116;53.112;7.356;2023-06-04T02:13:12;25.50;44.50
19908;DHT22;10116;53.112;7.356;2023-06-04T02:15:38;25.50;44.70
19908;DHT22;10116;53.112;7.356;2023-06-04T02:20:42;25.50;44.40
19908;DHT22;10116;53.112;7.356;2023-06-04T02:23:08;25.50;44.10
19908;DHT22;10116;53.112;7.356;2023-06-04T02:25:33;25.50;44.40
19908;DHT22;10116;53.112;7.356;2023-06-04T02:27:59;25.50;44.80
19908;DHT22;10116;53.112;7.356;2023-06-04T02:30:25;25.50;44.50
19908;DHT22;10116;53.112;7.356;2023-06-04T02:32:50;25.50;45.10
19908;DHT22;10116;53.112;7.356;2023-06-04T02:35:16;25.50;44.40
19908;DHT22;10116;53.112;7.356;2023-06-04T02:37:43;25.50;44.70
19908;DHT22;10116;53.112;7.356;2023-06-04T02:40:10;25.50;44.30
19908;DHT22;10116;53.112;7.356;2023-06-04T02:42:35;25.50;44.50
19908;DHT22;10116;53.112;7.356;2023-06-04T02:45:01;25.50;44.50
19908;DHT22;10116;53.112;7.356;2023-06-04T02:47:27;25.50;44.90
19908;DHT22;10116;53.112;7.356;2023-06-04T02:49:52;25.50;45.10
19908;DHT22;10116;53.112;7.356;2023-06-04T02:52:18;25.50;44.40
19908;DHT22;10116;53.112;7.356;2023-06-04T02:54:44;25.50;44.60
19908;DHT22;10116;53.112;7.356;2023-06-04T02:57:09;25.50;44.20
19908;DHT22;10116;53.112;7.356;2023-06-04T02:59:35;25.50;44.80
19908;DHT22;10116;53.112;7.356;2023-06-04T03:02:02;25.50;45.00
19908;DHT22;10116;53.112;7.356;2023-06-04T03:04:27;25.50;44.50
19908;DHT22;10116;53.112;7.356;2023-06-04T03:07:00;25.50;44.40
19908;DHT22;10116;53.112;7.356;2023-06-04T03:09:25;25.40;44.00
19908;DHT22;10116;53.112;7.356;2023-06-04T03:11:51;25.40;43.80
19908;DHT22;10116;53.112;7.356;2023-06-04T03:14:17;25.40;44.10
19908;DHT22;10116;53.112;7.356;2023-06-04T03:16:43;25.50;44.00
19908;DHT22;10116;53.112;7.356;2023-06-04T03:19:11;25.40;44.00
19908;DHT22;10116;53.112;7.356;2023-06-04T03:21:37;25.40;44.40
19908;DHT22;10116;53.112;7.356;2023-06-04T03:24:06;25.40;43.60
19908;DHT22;10116;53.112;7.356;2023-06-04T03:26:32;25.40;44.10
19908;DHT22;10116;53.112;7.356;2023-06-04T03:28:57;25.40;44.20
19908;DHT22;10116;53.112;7.356;2023-06-04T03:31:24;25.40;44.00
19908;DHT22;10116;53.112;7.356;2023-06-04T03:33:49;25.50;45.40
19908;DHT22;10116;53.112;7.356;2023-06-04T03:36:15;25.50;45.30
19908;DHT22;10116;53.112;7.356;2023-06-04T03:38:41;25.60;46.10
19908;DHT22;10116;53.112;7.356;2023-06-04T03:41:07;25.60;46.60
19908;DHT22;10116;53.112;7.356;2023-06-04T03:43:32;25.60;46.80
19908;DHT22;10116;53.112;7.356;2023-06-04T03:45:58;25.60;47.00
19908;DHT22;10116;53.112;7.356;2023-06-04T03:48:23;25.70;47.20
19908;DHT22;10116;53.112;7.356;2023-06-04T03:50:49;25.70;47.40
19908;DHT22;10116;53.112;7.356;2023-06-04T03:53:15;25.70;47.60
19908;DHT22;10116;53.112;7.356;2023-06-04T03:55:40;25.70;48.00
19908;DHT22;10116;53.112;7.356;2023-06-04T03:58:06;25.80;48.00
19908;DHT22;10116;53.112;7.356;2023-06-04T04:00:34;25.80;47.50
19908;DHT22;10116;53.112;7.356;2023-06-04T04:03:00;25.70;48.10
19908;DHT22;10116;53.112;7.356;2023-06-04T04:05:25;25.80;47.40
19908;DHT22;10116;53.112;7.356;2023-06-04T04:07:51;25.70;47.50
19908;DHT22;10116;53.112;7.356;2023-06-04T04:10:17;25.70;47.70
19908;DHT22;10116;53.112;7.356;2023-06-04T04:12:42;25.70;47.10
19908;DHT22;10116;53.112;7.356;2023-06-04T04:15:08;25.70;47.90
19908;DHT22;10116;53.112;7.356;2023-06-04T04:17:34;25.80;47.20
19908;DHT22;10116;53.112;7.356;2023-06-04T04:19:59;25.70;47.20
19908;DHT22;10116;53.112;7.356;2023-06-04T04:22:25;25.80;47.50
19908;DHT22;10116;53.112;7.356;2023-06-04T04:24:50;25.80;47.80
19908;DHT22;10116;53.112;7.356;2023-06-04T04:27:16;25.80;48.00
19908;DHT22;10116;53.112;7.356;2023-06-04T04:29:41;25.80;47.90
19908;DHT22;10116;53.112;7.356;2023-06-04T04:32:08;25.80;48.10
19908;DHT22;10116;53.112;7.356;2023-06-04T04:34:50;25.80;47.60
19908;DHT22;10116;53.112;7.356;2023-06-04T04:37:20;25.80;48.60
19908;DHT22;10116;53.112;7.356;2023-06-04T04:39:49;25.80;47.60
19908;DHT22;10116;53.112;7.356;2023-06-04T04:42:19;25.90;48.00
19908;DHT22;10116;53.112;7.356;2023-06-04T04:44:44;25.90;48.90
19908;DHT22;10116;53.112;7.356;2023-06-04T04:47:14;25.90;48.50
19908;DHT22;10116;53.112;7.356;2023-06-04T04:49:40;25.90;49.00
19908;DHT22;10116;53.112;7.356;2023-06-04T04:52:06;25.90;49.20
19908;DHT22;10116;53.112;7.356;2023-06-04T04:54:31;25.90;49.50
19908;DHT22;10116;53.112;7.356;2023-06-04T04:56:57;26.00;49.40
19908;DHT22;10116;53.112;7.356;2023-06-04T04:59:22;26.00;49.50
19908;DHT22;10116;53.112;7.356;2023-06-04T05:01:48;26.00;49.70
19908;DHT22;10116;53.112;7.356;2023-06-04T05:04:13;26.00;50.00
19908;DHT22;10116;53.112;7.356;2023-06-04T05:06:39;26.10;50.00
19908;DHT22;10116;53.112;7.356;2023-06-04T05:09:04;26.10;50.60
19908;DHT22;10116;53.112;7.356;2023-06-04T05:11:30;26.20;51.00
19908;DHT22;10116;53.112;7.356;2023-06-04T05:13:56;26.20;51.50
19908;DHT22;10116;53.112;7.356;2023-06-04T05:16:21;26.30;52.40
19908;DHT22;10116;53.112;7.356;2023-06-04T05:18:48;26.30;53.10
19908;DHT22;10116;53.112;7.356;2023-06-04T05:21:17;26.40;53.60
19908;DHT22;10116;53.112;7.356;2023-06-04T05:23:42;26.50;54.40
19908;DHT22;10116;53.112;7.356;2023-06-04T05:26:09;26.50;54.20
19908;DHT22;10116;53.112;7.356;2023-06-04T05:28:35;26.60;55.00
19908;DHT22;10116;53.112;7.356;2023-06-04T05:31:00;26.60;54.80
19908;DHT22;10116;53.112;7.356;2023-06-04T05:33:30;26.60;55.70
19908;DHT22;10116;53.112;7.356;2023-06-04T05:35:56;26.70;55.20
19908;DHT22;10116;53.112;7.356;2023-06-04T05:38:25;26.70;70.10
19908;DHT22;10116;53.112;7.356;2023-06-04T05:40:53;26.70;55.70
19908;DHT22;10116;53.112;7.356;2023-06-04T05:43:18;26.80;56.70
19908;DHT22;10116;53.112;7.356;2023-06-04T05:45:44;26.80;69.60
19908;DHT22;10116;53.112;7.356;2023-06-04T05:48:10;26.80;55.50
19908;DHT22;10116;53.112;7.356;2023-06-04T05:50:36;26.80;55.40
19908;DHT22;10116;53.112;7.356;2023-06-04T05:53:01;26.80;55.20
19908;DHT22;10116;53.112;7.356;2023-06-04T05:55:27;26.80;58.40
19908;DHT22;10116;53.112;7.356;2023-06-04T05:57:54;26.80;54.80
19908;DHT22;10116;53.112;7.356;2023-06-04T06:00:19;26.80;54.70
19908;DHT22;10116;53.112;7.356;2023-06-04T06:02:45;26.80;55.00
19908;DHT22;10116;53.112;7.356;2023-06-04T06:05:14;26.80;55.40
19908;DHT22;10116;53.112;7.356;2023-06-04T06:07:40;26.70;55.30
19908;DHT22;10116;53.112;7.356;2023-06-04T06:10:06;26.70;54.20
19908;DHT22;10116;53.112;7.356;2023-06-04T06:12:32;26.70;53.90
19908;DHT22;10116;53.112;7.356;2023-06-04T06:14:58;26.70;54.40
19908;DHT22;10116;53.112;7.356;2023-06-04T06:17:23;26.70;53.90
19908;DHT22;10116;53.112;7.356;2023-06-04T06:19:49;26.60;53.50
19908;DHT22;10116;53.112;7.356;2023-06-04T06:22:15;26.60;53.80
19908;DHT22;10116;53.112;7.356;2023-06-04T06:24:40;26.60;53.30
19908;DHT22;10116;53.112;7.356;2023-06-04T06:27:06;26.60;53.40
19908;DHT22;10116;53.112;7.356;2023-06-04T06:29:32;26.60;67.00
19908;DHT22;10116;53.112;7.356;2023-06-04T06:31:58;26.60;54.20
19908;DHT22;10116;53.112;7.356;2023-06-04T06:34:24;26.60;53.40
19908;DHT22;10116;53.112;7.356;2023-06-04T06:36:50;26.60;53.60
19908;DHT22;10116;53.112;7.356;2023-06-04T06:39:16;26.60;53.50
19908;DHT22;10116;53.112;7.356;2023-06-04T06:41:42;26.60;54.30
19908;DHT22;10116;53.112;7.356;2023-06-04T06:44:07;26.70;54.80
19908;DHT22;10116;53.112;7.356;2023-06-04T06:46:33;26.70;55.50
19908;DHT22;10116;53.112;7.356;2023-06-04T06:48:59;26.80;55.90
19908;DHT22;10116;53.112;7.356;2023-06-04T06:51:24;26.80;55.90
19908;DHT22;10116;53.112;7.356;2023-06-04T06:53:50;26.80;56.90
19908;DHT22;10116;53.112;7.356;2023-06-04T06:56:18;26.80;56.20
19908;DHT22;10116;53.112;7.356;2023-06-04T06:58:45;26.80;56.40
19908;DHT22;10116;53.112;7.356;2023-06-04T07:01:11;26.80;55.80
19908;DHT22;10116;53.112;7.356;2023-06-04T07:03:37;26.80;56.00
19908;DHT22;10116;53.112;7.356;2023-06-04T07:06:04;26.80;70.80
19908;DHT22;10116;53.112;7.356;2023-06-04T07:08:29;26.80;55.90
19908;DHT22;10116;53.112;7.356;2023-06-04T07:10:55;26.80;55.70
19908;DHT22;10116;53.112;7.356;2023-06-04T07:13:21;26.80;55.60
19908;DHT22;10116;53.112;7.356;2023-06-04T07:15:46;26.80;60.80
19908;DHT22;10116;53.112;7.356;2023-06-04T07:18:12;26.80;55.70
19908;DHT22;10116;53.112;7.356;2023-06-04T07:20:38;26.70;56.10
19908;DHT22;10116;53.112;7.356;2023-06-04T07:23:03;26.70;55.00
19908;DHT22;10116;53.112;7.356;2023-06-04T07:25:29;26.70;56.10
19908;DHT22;10116;53.112;7.356;2023-06-04T07:27:55;26.70;55.20
19908;DHT22;10116;53.112;7.356;2023-06-04T07:30:26;26.70;54.90
19908;DHT22;10116;53.112;7.356;2023-06-04T07:32:52;26.70;55.20
19908;DHT22;10116;53.112;7.356;2023-06-04T07:35:18;26.70;55.50
19908;DHT22;10116;53.112;7.356;2023-06-04T07:37:43;26.70;55.60
19908;DHT22;10116;53.112;7.356;2023-06-04T07:40:15;26.60;55.20
19908;DHT22;10116;53.112;7.356;2023-06-04T07:42:41;26.60;55.00
19908;DHT22;10116;53.112;7.356;2023-06-04T07:45:08;26.60;54.70
19908;DHT22;10116;53.112;7.356;2023-06-04T07:47:35;26.60;55.60
19908;DHT22;10116;53.112;7.356;2023-06-04T07:50:05;26.60;55.40
19908;DHT22;10116;53.112;7.356;2023-06-04T07:52:31;26.60;55.60
19908;DHT22;10116;53.112;7.356;2023-06-04T07:54:57;26.60;55.70
19908;DHT22;10116;53.112;7.356;2023-06-04T07:57:23;26.60;56.10
19908;DHT22;10116;53.112;7.356;2023-06-04T07:59:50;26.60;55.20
19908;DHT22;10116;53.112;7.356;2023-06-04T08:02:16;26.60;55.60
19908;DHT22;10116;53.112;7.356;2023-06-04T08:04:42;26.50;56.30
19908;DHT22;10116;53.112;7.356;2023-06-04T08:07:08;26.60;56.30
19908;DHT22;10116;53.112;7.356;2023-06-04T08:09:33;26.60;57.30
19908;DHT22;10116;53.112;7.356;2023-06-04T08:11:59;26.60;56.60
19908;DHT22;10116;53.112;7.356;2023-06-04T08:14:25;26.60;56.90
19908;DHT22;10116;53.112;7.356;2023-06-04T08:16:53;26.70;57.30
19908;DHT22;10116;53.112;7.356;2023-06-04T08:19:19;26.70;57.10
19908;DHT22;10116;53.112;7.356;2023-06-04T08:21:44;26.70;57.70
19908;DHT22;10116;53.112;7.356;2023-06-04T08:24:11;26.70;57.70
19908;DHT22;10116;53.112;7.356;2023-06-04T08:26:36;26.70;57.80
19908;DHT22;10116;53.112;7.356;2023-06-04T08:29:03;26.70;57.60
19908;DHT22;10116;53.112;7.356;2023-06-04T08:31:32;26.70;57.70
19908;DHT22;10116;53.112;7.356;2023-06-04T08:33:58;26.70;57.50
19908;DHT22;10116;53.112;7.356;2023-06-04T08:36:24;26.70;57.70
19908;DHT22;10116;53.112;7.356;2023-06-04T08:38:50;26.70;58.40
19908;DHT22;10116;53.112;7.356;2023-06-04T08:41:28;26.70;57.50
19908;DHT22;10116;53.112;7.356;2023-06-04T08:43:57;26.70;57.10
19908;DHT22;10116;53.112;7.356;2023-06-04T08:46:23;26.70;57.60
19908;DHT22;10116;53.112;7.356;2023-06-04T08:48:50;26.70;57.70
19908;DHT22;10116;53.112;7.356;2023-06-04T08:51:16;26.70;57.30
19908;DHT22;10116;53.112;7.356;2023-06-04T08:53:42;26.70;57.00
19908;DHT22;10116;53.112;7.356;2023-06-04T08:56:08;26.70;56.90
19908;DHT22;10116;53.112;7.356;2023-06-04T08:58:36;26.70;57.40
19908;DHT22;10116;53.112;7.356;2023-06-04T09:01:02;26.70;57.10
19908;DHT22;10116;53.112;7.356;2023-06-04T09:03:29;26.70;57.50
19908;DHT22;10116;53.112;7.356;2023-06-04T09:05:59;26.70;57.00
19908;DHT22;10116;53.112;7.356;2023-06-04T09:08:26;26.60;56.80
19908;DHT22;10116;53.112;7.356;2023-06-04T09:10:53;26.60;56.90
19908;DHT22;10116;53.112;7.356;2023-06-04T09:13:22;26.60;56.60
19908;DHT22;10116;53.112;7.356;2023-06-04T09:16:07;26.70;57.10
19908;DHT22;10116;53.112;7.356;2023-06-04T09:18:33;26.60;57.30
19908;DHT22;10116;53.112;7.356;2023-06-04T09:21:05;26.60;57.00
19908;DHT22;10116;53.112;7.356;2023-06-04T09:23:50;26.60;56.10
19908;DHT22;10116;53.112;7.356;2023-06-04T09:26:16;26.60;56.60
19908;DHT22;10116;53.112;7.356;2023-06-04T09:28:43;26.60;56.70
19908;DHT22;10116;53.112;7.356;2023-06-04T09:31:13;26.60;56.90
19908;DHT22;10116;53.112;7.356;2023-06-04T09:33:46;26.60;56.40
19908;DHT22;10116;53.112;7.356;2023-06-04T09:36:12;26.60;71.60
19908;DHT22;10116;53.112;7.356;2023-06-04T09:38:38;26.60;56.70
19908;DHT22;10116;53.112;7.356;2023-06-04T09:41:14;26.60;56.60
19908;DHT22;10116;53.112;7.356;2023-06-04T09:43:40;26.60;56.50
19908;DHT22;10116;53.112;7.356;2023-06-04T09:46:14;26.60;56.20
19908;DHT22;10116;53.112;7.356;2023-06-04T09:48:40;26.60;56.20
19908;DHT22;10116;53.112;7.356;2023-06-04T09:51:15;26.60;56.10
19908;DHT22;10116;53.112;7.356;2023-06-04T09:53:41;26.60;56.60
19908;DHT22;10116;53.112;7.356;2023-06-04T09:56:07;26.60;56.00
19908;DHT22;10116;53.112;7.356;2023-06-04T09:58:34;26.60;55.70
19908;DHT22;10116;53.112;7.356;2023-06-04T10:01:03;26.60;56.00
19908;DHT22;10116;53.112;7.356;2023-06-04T10:03:36;26.60;55.60
19908;DHT22;10116;53.112;7.356;2023-06-04T10:06:05;26.60;56.30
19908;DHT22;10116;53.112;7.356;2023-06-04T10:08:32;26.60;56.30
19908;DHT22;10116;53.112;7.356;2023-06-04T10:11:00;26.60;56.60
19908;DHT22;10116;53.112;7.356;2023-06-04T10:13:38;26.60;56.60
19908;DHT22;10116;53.112;7.356;2023-06-04T10:16:07;26.60;56.60
19908;DHT22;10116;53.112;7.356;2023-06-04T10:18:33;26.70;57.20
19908;DHT22;10116;53.112;7.356;2023-06-04T10:20:59;26.70;56.90
19908;DHT22;10116;53.112;7.356;2023-06-04T10:23:25;26.70;57.10
19908;DHT22;10116;53.112;7.356;2023-06-04T10:25:52;26.70;56.70
19908;DHT22;10116;53.112;7.356;2023-06-04T10:28:19;26.70;57.90
19908;DHT22;10116;53.112;7.356;2023-06-04T10:30:46;26.80;57.20
19908;DHT22;10116;53.112;7.356;2023-06-04T10:33:13;26.80;56.60
19908;DHT22;10116;53.112;7.356;2023-06-04T10:35:39;26.80;57.20
19908;DHT22;10116;53.112;7.356;2023-06-04T10:38:09;26.80;57.80
19908;DHT22;10116;53.112;7.356;2023-06-04T10:40:36;26.80;57.40
19908;DHT22;10116;53.112;7.356;2023-06-04T10:43:09;26.80;57.50
19908;DHT22;10116;53.112;7.356;2023-06-04T10:45:35;26.80;56.90
19908;DHT22;10116;53.112;7.356;2023-06-04T10:48:05;26.80;56.70
19908;DHT22;10116;53.112;7.356;2023-06-04T10:50:35;26.80;57.20
19908;DHT22;10116;53.112;7.356;2023-06-04T10:53:01;26.80;56.40
19908;DHT22;10116;53.112;7.356;2023-06-04T10:55:31;26.80;58.30
19908;DHT22;10116;53.112;7.356;2023-06-04T10:57:58;26.80;56.50
19908;DHT22;10116;53.112;7.356;2023-06-04T11:00:44;26.80;56.50
19908;DHT22;10116;53.112;7.356;2023-06-04T11:03:15;26.80;56.80
19908;DHT22;10116;53.112;7.356;2023-06-04T11:05:45;26.80;56.10
19908;DHT22;10116;53.112;7.356;2023-06-04T11:08:13;26.80;55.80
19908;DHT22;10116;53.112;7.356;2023-06-04T11:10:44;26.80;55.80
19908;DHT22;10116;53.112;7.356;2023-06-04T11:13:10;26.80;55.80
19908;DHT22;10116;53.112;7.356;2023-06-04T11:15:46;26.80;55.70
19908;DHT22;10116;53.112;7.356;2023-06-04T11:18:18;26.80;56.10
19908;DHT22;10116;53.112;7.356;2023-06-04T11:20:46;26.80;56.10
19908;DHT22;10116;53.112;7.356;2023-06-04T11:23:13;26.80;55.40
19908;DHT22;10116;53.112;7.356;2023-06-04T11:25:39;26.80;55.70
19908;DHT22;10116;53.112;7.356;2023-06-04T11:28:04;26.80;55.40
19908;DHT22;10116;53.112;7.356;2023-06-04T11:30:30;26.80;55.30
19908;DHT22;10116;53.112;7.356;2023-06-04T11:33:05;26.80;55.50
19908;DHT22;10116;53.112;7.356;2023-06-04T11:35:39;26.80;54.70
19908;DHT22;10116;53.112;7.356;2023-06-04T11:38:05;26.80;57.00
19908;DHT22;10116;53.112;7.356;2023-06-04T11:40:31;26.80;54.50
19908;DHT22;10116;53.112;7.356;2023-06-04T11:42:56;26.80;54.60
19908;DHT22;10116;53.112;7.356;2023-06-04T11:45:23;26.80;54.80
19908;DHT22;10116;53.112;7.356;2023-06-04T11:47:55;26.80;55.00
19908;DHT22;10116;53.112;7.356;2023-06-04T11:50:22;26.80;55.20
19908;DHT22;10116;53.112;7.356;2023-06-04T11:52:48;26.80;54.70
19908;DHT22;10116;53.112;7.356;2023-06-04T11:55:15;26.80;54.70
19908;DHT22;10116;53.112;7.356;2023-06-04T11:57:43;26.90;56.00
19908;DHT22;10116;53.112;7.356;2023-06-04T12:00:09;26.90;55.80
19908;DHT22;10116;53.112;7.356;2023-06-04T12:02:49;26.90;55.90
19908;DHT22;10116;53.112;7.356;2023-06-04T12:05:16;27.00;56.10
19908;DHT22;10116;53.112;7.356;2023-06-04T12:07:46;27.00;55.80
19908;DHT22;10116;53.112;7.356;2023-06-04T12:10:13;27.00;56.60
19908;DHT22;10116;53.112;7.356;2023-06-04T12:12:39;27.00;56.00
19908;DHT22;10116;53.112;7.356;2023-06-04T12:15:06;27.00;55.90
19908;DHT22;10116;53.112;7.356;2023-06-04T12:17:32;27.10;55.60
19908;DHT22;10116;53.112;7.356;2023-06-04T12:19:58;27.00;55.90
19908;DHT22;10116;53.112;7.356;2023-06-04T12:22:25;27.10;55.60
19908;DHT22;10116;53.112;7.356;2023-06-04T12:27:25;27.10;55.70
19908;DHT22;10116;53.112;7.356;2023-06-04T12:30:04;27.10;55.40
19908;DHT22;10116;53.112;7.356;2023-06-04T12:32:36;27.10;55.50
19908;DHT22;10116;53.112;7.356;2023-06-04T12:35:02;27.10;55.00
19908;DHT22;10116;53.112;7.356;2023-06-04T12:37:28;27.10;55.50
19908;DHT22;10116;53.112;7.356;2023-06-04T12:39:54;27.10;55.50
19908;DHT22;10116;53.112;7.356;2023-06-04T12:42:20;27.10;55.10
19908;DHT22;10116;53.112;7.356;2023-06-04T12:44:46;27.10;54.50
19908;DHT22;10116;53.112;7.356;2023-06-04T12:47:12;27.00;55.10
19908;DHT22;10116;53.112;7.356;2023-06-04T12:49:38;27.10;55.50
19908;DHT22;10116;53.112;7.356;2023-06-04T12:52:04;27.00;54.10
19908;DHT22;10116;53.112;7.356;2023-06-04T12:54:30;27.00;54.20
19908;DHT22;10116;53.112;7.356;2023-06-04T12:56:56;27.00;54.20
19908;DHT22;10116;53.112;7.356;2023-06-04T12:59:27;27.10;53.90
19908;DHT22;10116;53.112;7.356;2023-06-04T13:01:53;27.00;54.50
19908;DHT22;10116;53.112;7.356;2023-06-04T13:04:19;27.00;54.10
19908;DHT22;10116;53.112;7.356;2023-06-04T13:06:44;27.00;54.40
19908;DHT22;10116;53.112;7.356;2023-06-04T13:09:13;27.00;54.90
19908;DHT22;10116;53.112;7.356;2023-06-04T13:11:40;27.00;54.20
19908;DHT22;10116;53.112;7.356;2023-06-04T13:14:07;27.10;54.30
19908;DHT22;10116;53.112;7.356;2023-06-04T13:16:33;27.00;54.00
19908;DHT22;10116;53.112;7.356;2023-06-04T13:18:58;27.00;54.20
19908;DHT22;10116;53.112;7.356;2023-06-04T13:21:24;27.00;53.90
19908;DHT22;10116;53.112;7.356;2023-06-04T13:23:50;27.00;54.50
19908;DHT22;10116;53.112;7.356;2023-06-04T13:26:16;27.00;53.80
19908;DHT22;10116;53.112;7.356;2023-06-04T13:28:42;27.00;53.80
19908;DHT22;10116;53.112;7.356;2023-06-04T13:31:07;27.00;54.10
19908;DHT22;10116;53.112;7.356;2023-06-04T13:33:33;27.00;54.30
19908;DHT22;10116;53.112;7.356;2023-06-04T13:36:00;27.00;53.40
19908;DHT22;10116;53.112;7.356;2023-06-04T13:38:26;27.00;53.90
19908;DHT22;10116;53.112;7.356;2023-06-04T13:40:52;27.00;53.00
19908;DHT22;10116;53.112;7.356;2023-06-04T13:43:18;27.00;53.40
19908;DHT22;10116;53.112;7.356;2023-06-04T13:45:43;27.00;53.80
19908;DHT22;10116;53.112;7.356;2023-06-04T13:48:11;27.00;53.40
19908;DHT22;10116;53.112;7.356;2023-06-04T13:50:37;27.00;53.20
19908;DHT22;10116;53.112;7.356;2023-06-04T13:53:03;27.00;54.20
19908;DHT22;10116;53.112;7.356;2023-06-04T13:55:29;27.10;54.20
19908;DHT22;10116;53.112;7.356;2023-06-04T13:57:55;27.10;55.60
19908;DHT22;10116;53.112;7.356;2023-06-04T14:00:21;27.10;55.20
19908;DHT22;10116;53.112;7.356;2023-06-04T14:02:48;27.10;54.70
19908;DHT22;10116;53.112;7.356;2023-06-04T14:05:14;27.20;56.20
19908;DHT22;10116;53.112;7.356;2023-06-04T14:07:41;27.20;55.30
19908;DHT22;10116;53.112;7.356;2023-06-04T14:10:08;27.20;55.50
19908;DHT22;10116;53.112;7.356;2023-06-04T14:12:34;27.20;55.70
19908;DHT22;10116;53.112;7.356;2023-06-04T14:15:01;27.20;55.40
19908;DHT22;10116;53.112;7.356;2023-06-04T14:17:26;27.20;55.50
19908;DHT22;10116;53.112;7.356;2023-06-04T14:19:52;27.20;55.40
19908;DHT22;10116;53.112;7.356;2023-06-04T14:22:17;27.20;54.90
19908;DHT22;10116;53.112;7.356;2023-06-04T14:24:43;27.20;55.20
19908;DHT22;10116;53.112;7.356;2023-06-04T14:27:09;27.20;55.30
19908;DHT22;10116;53.112;7.356;2023-06-04T14:29:37;27.20;54.90
19908;DHT22;10116;53.112;7.356;2023-06-04T14:32:04;27.20;55.10
19908;DHT22;10116;53.112;7.356;2023-06-04T14:34:30;27.20;55.10
19908;DHT22;10116;53.112;7.356;2023-06-04T14:36:58;27.20;55.40
19908;DHT22;10116;53.112;7.356;2023-06-04T14:39:28;27.20;54.70
19908;DHT22;10116;53.112;7.356;2023-06-04T14:41:53;27.20;55.60
19908;DHT22;10116;53.112;7.356;2023-06-04T14:44:19;27.20;55.50
19908;DHT22;10116;53.112;7.356;2023-06-04T14:46:46;27.20;55.10
19908;DHT22;10116;53.112;7.356;2023-06-04T14:49:12;27.20;55.00
19908;DHT22;10116;53.112;7.356;2023-06-04T14:51:38;27.10;55.10
19908;DHT22;10116;53.112;7.356;2023-06-04T14:54:03;27.10;54.70
19908;DHT22;10116;53.112;7.356;2023-06-04T14:56:29;27.10;54.50
19908;DHT22;10116;53.112;7.356;2023-06-04T14:58:56;27.10;54.70
19908;DHT22;10116;53.112;7.356;2023-06-04T15:01:21;27.10;54.40
19908;DHT22;10116;53.112;7.356;2023-06-04T15:03:50;27.10;54.50
19908;DHT22;10116;53.112;7.356;2023-06-04T15:06:16;27.10;55.00
19908;DHT22;10116;53.112;7.356;2023-06-04T15:08:41;27.10;54.40
19908;DHT22;10116;53.112;7.356;2023-06-04T15:11:07;27.00;55.00
19908;DHT22;10116;53.112;7.356;2023-06-04T15:13:32;27.00;55.10
19908;DHT22;10116;53.112;7.356;2023-06-04T15:15:58;27.00;54.80
19908;DHT22;10116;53.112;7.356;2023-06-04T15:18:23;27.00;55.50
19908;DHT22;10116;53.112;7.356;2023-06-04T15:20:49;27.00;55.10
19908;DHT22;10116;53.112;7.356;2023-06-04T15:23:15;27.10;55.30
19908;DHT22;10116;53.112;7.356;2023-06-04T15:25:41;27.10;55.20
19908;DHT22;10116;53.112;7.356;2023-06-04T15:28:07;27.10;56.50
19908;DHT22;10116;53.112;7.356;2023-06-04T15:30:32;27.10;56.30
19908;DHT22;10116;53.112;7.356;2023-06-04T15:32:58;27.20;56.40